Time;durP1;ratioP1;P1;durP2;ratioP2;P2;SDS_P1;SDS_P2;PMS_P1;PMS_P2;Temp;Humidity;BMP_temperature;BMP_pressure;BME280_temperature;BME280_humidity;BME280_pressure;Samples;Min_cycle;Max_cycle;Signal;HPM_P1;HPM_P2
2021/10/19 00:00:44;;;;;;;4.30;2.83;;;4.80;94.70;;;;;;2081406;28;20182;-64
2021/10/19 00:01:47;;;;;;;3.63;2.73;;;4.80;94.90;;;;;;2080420;28;20210;-65
2021/10/19 00:02:48;;;;;;;5.20;3.10;;;4.80;95.00;;;;;;2080775;28;20564;-64
2021/10/19 00:03:49;;;;;;;7.77;3.10;;;4.80;95.00;;;;;;2081172;28;20175;-65
2021/10/19 00:04:49;;;;;;;4.60;2.97;;;4.80;95.10;;;;;;2081275;28;20641;-65
2021/10/19 00:05:50;;;;;;;6.20;2.90;;;4.80;95.20;;;;;;2081223;28;20269;-65
2021/10/19 00:06:51;;;;;;;4.83;3.17;;;4.80;95.30;;;;;;2079688;28;20184;-65
2021/10/19 00:07:52;;;;;;;7.53;3.07;;;4.80;95.50;;;;;;2073386;28;20719;-65
2021/10/19 00:08:53;;;;;;;4.82;3.25;;;4.80;95.60;;;;;;2073061;28;20184;-65
2021/10/19 00:09:53;;;;;;;3.60;2.50;;;4.80;95.40;;;;;;2073101;28;20272;-65
2021/10/19 00:10:54;;;;;;;4.47;3.13;;;4.80;95.00;;;;;;2073240;28;20668;-64
2021/10/19 00:11:55;;;;;;;4.23;2.87;;;4.90;94.80;;;;;;2072948;28;20181;-65
2021/10/19 00:12:56;;;;;;;5.47;2.93;;;4.90;94.60;;;;;;2073186;28;20703;-65
2021/10/19 00:13:56;;;;;;;5.87;2.80;;;4.90;95.00;;;;;;2073169;28;20551;-64
2021/10/19 00:14:57;;;;;;;4.33;2.83;;;4.90;94.30;;;;;;2073050;28;20180;-64
2021/10/19 00:15:58;;;;;;;3.20;2.30;;;4.90;94.30;;;;;;2073069;28;20221;-65
2021/10/19 00:16:58;;;;;;;4.27;2.80;;;4.90;94.20;;;;;;2073053;28;20234;-64
2021/10/19 00:17:59;;;;;;;3.83;2.57;;;4.90;94.30;;;;;;2073107;28;20615;-65
2021/10/19 00:19:00;;;;;;;4.97;2.77;;;4.90;94.30;;;;;;2073063;28;20217;-65
2021/10/19 00:20:03;;;;;;;3.55;2.60;;;4.90;94.40;;;;;;2073213;28;20595;-65
2021/10/19 00:21:04;;;;;;;3.70;2.58;;;4.90;94.40;;;;;;2072653;28;20196;-64
2021/10/19 00:22:06;;;;;;;3.15;2.63;;;4.90;94.40;;;;;;2072568;28;20690;-65
2021/10/19 00:23:06;;;;;;;4.35;2.78;;;4.90;94.70;;;;;;2073029;28;20242;-65
2021/10/19 00:24:07;;;;;;;6.73;2.80;;;4.90;94.70;;;;;;2073132;28;20177;-65
2021/10/19 00:25:10;;;;;;;4.63;2.70;;;4.90;94.60;;;;;;2072964;28;20184;-65
2021/10/19 00:26:11;;;;;;;3.40;2.60;;;4.90;94.40;;;;;;2072385;28;20244;-65
2021/10/19 00:27:12;;;;;;;4.87;2.53;;;4.90;94.30;;;;;;2072534;28;20188;-65
2021/10/19 00:28:13;;;;;;;4.70;2.60;;;4.90;94.10;;;;;;2073042;28;20553;-65
2021/10/19 00:29:14;;;;;;;4.50;2.53;;;4.90;93.90;;;;;;2073038;28;20187;-65
2021/10/19 00:30:15;;;;;;;3.00;2.20;;;4.90;94.00;;;;;;2072962;28;20431;-63
2021/10/19 00:31:16;;;;;;;3.83;2.50;;;4.90;93.90;;;;;;2072824;28;20196;-64
2021/10/19 00:32:17;;;;;;;4.33;2.70;;;4.80;93.90;;;;;;2072408;28;20187;-64
2021/10/19 00:33:18;;;;;;;3.30;2.40;;;4.80;93.90;;;;;;2072442;28;20184;-65
2021/10/19 00:34:19;;;;;;;4.87;2.90;;;4.80;94.30;;;;;;2073047;28;20210;-65
2021/10/19 00:35:20;;;;;;;5.27;2.57;;;4.80;94.60;;;;;;2072358;28;20556;-65
2021/10/19 00:36:20;;;;;;;5.97;2.80;;;4.80;94.40;;;;;;2072414;28;20833;-65
2021/10/19 00:37:21;;;;;;;3.73;2.60;;;4.80;94.50;;;;;;2072923;28;20207;-64
2021/10/19 00:38:21;;;;;;;3.20;2.60;;;4.70;94.60;;;;;;2073383;28;20235;-65
2021/10/19 00:39:22;;;;;;;4.03;2.40;;;4.70;94.80;;;;;;2072929;28;20548;-64
2021/10/19 00:40:23;;;;;;;5.03;2.50;;;4.70;95.00;;;;;;2073217;28;20172;-64
2021/10/19 00:41:24;;;;;;;5.20;2.47;;;4.70;95.00;;;;;;2072637;28;20258;-64
2021/10/19 00:42:25;;;;;;;3.37;2.67;;;4.70;94.90;;;;;;2073048;28;20251;-65
2021/10/19 00:43:26;;;;;;;3.40;2.47;;;4.70;94.90;;;;;;2072958;28;20268;-65
2021/10/19 00:44:27;;;;;;;3.47;2.47;;;4.70;94.70;;;;;;2072354;28;20187;-64
2021/10/19 00:45:28;;;;;;;3.53;2.50;;;4.70;94.40;;;;;;2072300;28;20670;-64
2021/10/19 00:46:28;;;;;;;2.40;2.20;;;4.60;94.30;;;;;;2072986;28;20287;-64
2021/10/19 00:47:29;;;;;;;2.63;2.17;;;4.60;94.60;;;;;;2073027;28;20217;-64
2021/10/19 00:48:31;;;;;;;2.87;2.17;;;4.60;94.80;;;;;;2073020;28;20184;-64
2021/10/19 00:49:32;;;;;;;4.70;2.70;;;4.60;95.00;;;;;;2072974;28;20183;-64
2021/10/19 00:50:34;;;;;;;2.60;2.10;;;4.50;94.60;;;;;;2072993;28;20244;-65
2021/10/19 00:51:35;;;;;;;4.13;2.50;;;4.50;94.70;;;;;;2071943;28;20181;-65
2021/10/19 00:52:36;;;;;;;3.28;2.22;;;4.50;94.80;;;;;;2064501;28;20311;-64
2021/10/19 00:53:37;;;;;;;4.43;2.33;;;4.40;94.70;;;;;;2072523;28;20226;-64
2021/10/19 00:54:38;;;;;;;3.37;2.30;;;4.40;94.70;;;;;;2072450;28;20195;-64
2021/10/19 00:55:39;;;;;;;4.27;2.60;;;4.40;94.70;;;;;;2072319;28;20200;-65
2021/10/19 00:56:40;;;;;;;3.80;2.23;;;4.40;94.90;;;;;;2072912;28;20212;-64
2021/10/19 00:57:41;;;;;;;4.43;2.40;;;4.40;94.90;;;;;;2072300;28;20699;-64
2021/10/19 00:58:42;;;;;;;2.60;2.03;;;4.40;94.80;;;;;;2072340;28;20184;-64
2021/10/19 00:59:45;;;;;;;5.60;2.35;;;4.50;94.70;;;;;;2072578;28;20197;-64
2021/10/19 01:00:46;;;;;;;4.20;2.45;;;4.50;94.60;;;;;;2066138;28;20266;-65
2021/10/19 01:01:48;;;;;;;2.87;2.07;;;4.50;94.60;;;;;;2073783;28;20259;-64
2021/10/19 01:02:49;;;;;;;3.65;2.25;;;4.50;94.50;;;;;;2073894;28;20271;-64
2021/10/19 01:03:50;;;;;;;3.17;2.17;;;4.50;94.60;;;;;;2074043;28;20185;-64
2021/10/19 01:04:50;;;;;;;2.73;1.93;;;4.50;94.70;;;;;;2074621;28;20243;-65
2021/10/19 01:05:52;;;;;;;2.23;1.77;;;4.50;94.80;;;;;;2074521;28;20234;-64
2021/10/19 01:06:52;;;;;;;5.30;2.33;;;4.50;94.80;;;;;;2073957;28;20173;-65
2021/10/19 01:07:53;;;;;;;3.50;2.43;;;4.50;94.60;;;;;;2073889;28;20202;-65
2021/10/19 01:08:55;;;;;;;4.73;1.80;;;4.60;94.50;;;;;;2074590;28;20194;-65
2021/10/19 01:09:56;;;;;;;2.95;1.90;;;4.60;94.50;;;;;;2074536;28;20521;-64
2021/10/19 01:10:57;;;;;;;1.75;1.65;;;4.60;94.80;;;;;;2073927;28;20206;-65
2021/10/19 01:11:58;;;;;;;3.22;1.80;;;4.60;94.80;;;;;;2065792;28;20185;-65
2021/10/19 01:12:59;;;;;;;3.07;2.20;;;4.60;94.80;;;;;;2073798;28;20708;-64
2021/10/19 01:14:00;;;;;;;3.67;2.30;;;4.60;94.80;;;;;;2074760;28;20176;-65
2021/10/19 01:15:08;;;;;;;2.47;1.90;;;4.60;94.60;;;;;;2074653;28;20184;-64
2021/10/19 01:16:11;;;;;;;2.97;1.85;;;4.60;94.50;;;;;;2074525;28;20208;-64
2021/10/19 01:17:11;;;;;;;2.80;1.90;;;4.70;94.20;;;;;;2073663;28;20748;-64
2021/10/19 01:18:17;;;;;;;4.30;2.10;;;4.70;94.10;;;;;;2073959;28;20319;-64
2021/10/19 01:19:22;;;;;;;7.38;2.30;;;4.70;94.10;;;;;;2074568;28;20199;-65
2021/10/19 01:20:35;;;;;;;4.30;2.45;;;4.70;94.20;;;;;;2074510;28;20676;-65
2021/10/19 01:21:35;;;;;;;3.47;2.22;;;4.70;94.40;;;;;;2073599;28;20637;-65
2021/10/19 01:22:36;;;;;;;3.17;1.97;;;4.70;94.40;;;;;;2073806;28;20264;-64
2021/10/19 01:23:37;;;;;;;2.37;1.90;;;4.80;94.40;;;;;;2074249;28;20211;-65
2021/10/19 01:24:38;;;;;;;3.67;2.20;;;4.80;94.30;;;;;;2073746;28;20187;-63
2021/10/19 01:25:39;;;;;;;3.10;2.17;;;4.80;94.20;;;;;;2073706;28;20207;-64
2021/10/19 01:26:39;;;;;;;4.33;1.80;;;4.80;94.10;;;;;;2074369;28;20184;-64
2021/10/19 01:27:54;;;;;;;2.63;2.03;;;4.90;94.20;;;;;;2074295;28;20266;-65
2021/10/19 01:28:54;;;;;;;2.85;1.90;;;4.90;94.30;;;;;;2074283;28;20704;-65
2021/10/19 01:29:55;;;;;;;5.43;2.30;;;4.90;94.30;;;;;;2074325;28;20266;-65
2021/10/19 01:30:58;;;;;;;3.67;2.20;;;5.00;94.20;;;;;;2074358;28;20205;-65
2021/10/19 01:32:01;;;;;;;3.30;2.00;;;5.00;94.20;;;;;;2074267;28;20577;-65
2021/10/19 01:33:01;;;;;;;2.80;2.20;;;5.10;94.10;;;;;;2074351;28;20192;-65
2021/10/19 01:34:02;;;;;;;2.27;1.80;;;5.10;94.00;;;;;;2074245;28;20188;-65
2021/10/19 01:35:05;;;;;;;2.88;2.00;;;5.10;94.00;;;;;;2074436;28;20185;-64
2021/10/19 01:36:07;;;;;;;4.63;2.17;;;5.10;94.10;;;;;;2074314;28;20295;-65
2021/10/19 01:37:08;;;;;;;2.53;2.00;;;5.20;94.10;;;;;;2073910;28;20185;-65
2021/10/19 01:38:27;;;;;;;3.57;2.27;;;5.20;94.00;;;;;;2073729;28;20191;-65
2021/10/19 01:39:28;;;;;;;5.95;2.28;;;5.20;94.10;;;;;;2074249;28;20651;-64
2021/10/19 01:40:29;;;;;;;4.10;1.63;;;5.30;93.90;;;;;;2075594;28;20193;-65
2021/10/19 01:41:30;;;;;;;5.28;2.15;;;5.30;93.50;;;;;;2082103;28;20179;-65
2021/10/19 01:42:34;;;;;;;2.90;1.90;;;5.30;93.50;;;;;;2082449;28;20530;-65
2021/10/19 01:43:35;;;;;;;5.22;2.03;;;5.30;93.20;;;;;;2082123;28;20183;-64
2021/10/19 01:44:36;;;;;;;2.97;2.03;;;5.40;92.80;;;;;;2081839;28;20185;-65
2021/10/19 01:45:36;;;;;;;2.63;2.07;;;5.40;92.60;;;;;;2082491;28;20231;-65
2021/10/19 01:46:37;;;;;;;2.60;1.90;;;5.30;92.50;;;;;;2082525;28;20207;-65
2021/10/19 01:47:38;;;;;;;3.20;2.20;;;5.30;93.00;;;;;;2082657;28;20709;-65
2021/10/19 01:48:40;;;;;;;2.77;2.20;;;5.30;93.10;;;;;;2081796;28;20699;-65
2021/10/19 01:49:41;;;;;;;2.50;1.80;;;5.30;92.90;;;;;;2081820;28;20181;-65
2021/10/19 01:50:41;;;;;;;2.73;1.90;;;5.30;93.30;;;;;;2082304;28;20664;-65
2021/10/19 01:51:42;;;;;;;2.40;1.80;;;5.30;93.10;;;;;;2082106;28;20208;-65
2021/10/19 01:52:44;;;;;;;2.37;1.83;;;5.40;93.10;;;;;;2082435;28;20212;-64
2021/10/19 01:53:45;;;;;;;2.92;2.03;;;5.40;93.30;;;;;;2081880;28;20176;-65
2021/10/19 01:54:46;;;;;;;2.67;1.75;;;5.40;92.80;;;;;;2081726;28;20238;-65
2021/10/19 01:55:47;;;;;;;3.00;2.27;;;5.50;92.70;;;;;;2082207;28;20251;-65
2021/10/19 01:56:47;;;;;;;4.13;1.57;;;5.50;92.50;;;;;;2082249;28;20215;-65
2021/10/19 01:57:48;;;;;;;2.00;1.80;;;5.50;92.30;;;;;;2082312;28;20227;-65
2021/10/19 01:58:48;;;;;;;3.83;1.97;;;5.50;92.40;;;;;;2082342;28;20184;-65
2021/10/19 01:59:49;;;;;;;3.40;1.90;;;5.50;92.10;;;;;;2082456;28;20180;-64
2021/10/19 02:00:53;;;;;;;2.73;1.90;;;5.60;92.00;;;;;;2082136;28;20239;-65
2021/10/19 02:01:53;;;;;;;2.38;2.03;;;5.60;91.80;;;;;;2081573;28;20165;-65
2021/10/19 02:02:54;;;;;;;4.17;2.03;;;5.50;92.30;;;;;;2081740;28;20530;-65
2021/10/19 02:03:55;;;;;;;3.00;1.90;;;5.60;92.60;;;;;;2082482;28;20176;-65
2021/10/19 02:04:55;;;;;;;3.77;2.00;;;5.60;92.30;;;;;;2082259;28;20180;-64
2021/10/19 02:05:56;;;;;;;2.57;2.20;;;5.60;92.40;;;;;;2082211;28;20579;-65
2021/10/19 02:06:56;;;;;;;4.07;2.47;;;5.60;92.20;;;;;;2082283;28;20452;-65
2021/10/19 02:07:58;;;;;;;3.77;2.10;;;5.60;92.10;;;;;;2082383;28;20192;-64
2021/10/19 02:08:59;;;;;;;2.95;2.40;;;5.60;92.20;;;;;;2081159;28;20183;-65
2021/10/19 02:10:00;;;;;;;3.00;2.20;;;5.60;92.00;;;;;;2076188;28;20556;-65
2021/10/19 02:11:00;;;;;;;2.83;2.10;;;5.60;92.00;;;;;;2073778;28;20185;-65
2021/10/19 02:12:01;;;;;;;3.67;2.20;;;5.60;92.00;;;;;;2073978;28;20181;-64
2021/10/19 02:13:04;;;;;;;2.57;1.90;;;5.60;91.60;;;;;;2074057;28;20637;-65
2021/10/19 02:14:05;;;;;;;3.00;2.00;;;5.60;92.30;;;;;;2074015;28;20213;-65
2021/10/19 02:15:08;;;;;;;3.30;2.37;;;5.60;92.60;;;;;;2073858;28;20560;-65
2021/10/19 02:16:09;;;;;;;2.35;2.10;;;5.60;92.60;;;;;;2073296;28;20209;-65
2021/10/19 02:17:09;;;;;;;2.63;2.10;;;5.60;92.80;;;;;;2073149;28;20217;-64
2021/10/19 02:18:10;;;;;;;4.43;2.20;;;5.70;92.80;;;;;;2073997;28;20711;-65
2021/10/19 02:19:11;;;;;;;2.72;2.40;;;5.70;92.70;;;;;;2073916;28;20548;-65
2021/10/19 02:20:12;;;;;;;2.40;2.17;;;5.70;92.60;;;;;;2074103;28;20192;-65
2021/10/19 02:21:12;;;;;;;3.60;2.20;;;5.80;92.80;;;;;;2073653;28;20554;-65
2021/10/19 02:22:13;;;;;;;3.70;2.00;;;5.80;92.70;;;;;;2074086;28;20220;-65
2021/10/19 02:23:14;;;;;;;4.47;2.47;;;5.80;92.30;;;;;;2073879;28;20220;-65
2021/10/19 02:24:15;;;;;;;3.30;2.43;;;5.80;92.20;;;;;;2073963;28;20573;-65
2021/10/19 02:25:16;;;;;;;5.57;2.10;;;5.80;92.40;;;;;;2073865;28;20185;-65
2021/10/19 02:26:17;;;;;;;2.83;2.33;;;5.80;92.30;;;;;;2073423;28;20190;-65
2021/10/19 02:27:17;;;;;;;2.10;1.90;;;5.80;92.00;;;;;;2073351;28;20672;-65
2021/10/19 02:28:18;;;;;;;3.47;2.23;;;5.90;91.80;;;;;;2073731;28;20188;-65
2021/10/19 02:29:19;;;;;;;3.33;2.47;;;5.90;91.60;;;;;;2073902;28;20261;-64
2021/10/19 02:30:22;;;;;;;2.42;2.08;;;5.90;91.50;;;;;;2073833;28;20238;-66
2021/10/19 02:31:22;;;;;;;3.47;1.92;;;5.90;91.40;;;;;;2073137;28;20268;-64
2021/10/19 02:32:23;;;;;;;3.07;2.03;;;5.90;91.50;;;;;;2073225;28;20559;-64
2021/10/19 02:33:24;;;;;;;2.60;1.80;;;5.90;91.60;;;;;;2073781;28;20184;-65
2021/10/19 02:34:25;;;;;;;2.70;2.42;;;5.90;91.70;;;;;;2073846;28;20200;-64
2021/10/19 02:35:25;;;;;;;4.20;2.13;;;6.00;91.80;;;;;;2074743;28;20683;-64
2021/10/19 02:36:26;;;;;;;2.53;1.80;;;6.00;91.60;;;;;;2081933;28;20215;-64
2021/10/19 02:37:27;;;;;;;3.07;2.10;;;6.00;91.60;;;;;;2081756;28;20290;-65
2021/10/19 02:38:28;;;;;;;3.08;2.20;;;6.10;91.60;;;;;;2082078;28;20173;-64
2021/10/19 02:39:28;;;;;;;2.40;1.90;;;6.10;91.70;;;;;;2081925;28;20795;-65
2021/10/19 02:40:29;;;;;;;3.27;1.83;;;6.10;91.60;;;;;;2081979;28;20181;-65
2021/10/19 02:41:30;;;;;;;3.93;2.00;;;6.20;91.60;;;;;;2081845;28;20271;-65
2021/10/19 02:42:31;;;;;;;2.83;2.10;;;6.20;91.40;;;;;;2082014;28;20223;-64
2021/10/19 02:43:31;;;;;;;2.67;2.10;;;6.20;91.60;;;;;;2081959;28;20181;-64
2021/10/19 02:44:32;;;;;;;2.40;2.20;;;6.30;91.50;;;;;;2081940;28;20551;-65
2021/10/19 02:45:33;;;;;;;2.40;2.03;;;6.30;91.40;;;;;;2081842;28;20239;-65
2021/10/19 02:46:34;;;;;;;2.77;1.97;;;6.30;91.00;;;;;;2081914;28;20184;-64
2021/10/19 02:47:35;;;;;;;2.63;1.88;;;6.30;90.90;;;;;;2081952;28;20216;-65
2021/10/19 02:48:35;;;;;;;2.53;1.87;;;6.30;91.00;;;;;;2081300;28;20595;-65
2021/10/19 02:49:36;;;;;;;5.73;1.80;;;6.30;91.00;;;;;;2081273;28;20207;-64
2021/10/19 02:50:37;;;;;;;2.43;1.80;;;6.30;91.20;;;;;;2081830;28;20276;-64
2021/10/19 02:51:37;;;;;;;2.07;1.87;;;6.30;91.30;;;;;;2081686;28;20623;-64
2021/10/19 02:52:39;;;;;;;2.10;1.80;;;6.40;91.30;;;;;;2081816;28;20211;-65
2021/10/19 02:53:40;;;;;;;2.53;1.77;;;6.40;91.10;;;;;;2081910;28;20187;-64
2021/10/19 02:54:40;;;;;;;7.27;2.30;;;6.40;91.00;;;;;;2081715;28;20198;-63
2021/10/19 02:55:41;;;;;;;3.50;2.03;;;6.30;91.30;;;;;;2081734;28;20237;-64
2021/10/19 02:56:42;;;;;;;3.10;1.90;;;6.20;91.70;;;;;;2081925;28;20181;-65
2021/10/19 02:57:45;;;;;;;2.20;2.00;;;6.20;92.00;;;;;;2081808;28;20200;-64
2021/10/19 02:58:45;;;;;;;3.35;1.90;;;6.20;92.10;;;;;;2081254;28;20207;-65
2021/10/19 02:59:47;;;;;;;3.53;2.00;;;6.20;92.40;;;;;;2081225;28;20272;-65
2021/10/19 03:00:48;;;;;;;2.25;2.00;;;6.20;92.30;;;;;;2081017;28;20719;-65
2021/10/19 03:01:49;;;;;;;2.63;2.00;;;6.30;92.30;;;;;;2072765;28;20189;-64
2021/10/19 03:02:50;;;;;;;2.25;1.73;;;6.30;91.90;;;;;;2081082;28;20172;-64
2021/10/19 03:03:51;;;;;;;3.03;2.03;;;6.30;91.90;;;;;;2081954;28;20558;-64
2021/10/19 03:04:51;;;;;;;2.83;2.07;;;6.30;91.70;;;;;;2081667;28;20245;-65
2021/10/19 03:05:52;;;;;;;3.70;2.13;;;6.30;91.80;;;;;;2081751;28;20239;-65
2021/10/19 03:06:53;;;;;;;3.13;2.10;;;6.20;92.50;;;;;;2081729;28;20169;-64
2021/10/19 03:07:54;;;;;;;2.23;1.77;;;6.20;92.90;;;;;;2081829;28;20174;-64
2021/10/19 03:08:56;;;;;;;2.47;1.90;;;6.20;92.50;;;;;;2081671;28;20664;-64
2021/10/19 03:09:57;;;;;;;3.05;2.40;;;6.20;92.50;;;;;;2081713;28;20184;-64
2021/10/19 03:10:58;;;;;;;6.07;2.47;;;6.20;92.40;;;;;;2081629;28;20236;-64
2021/10/19 03:11:59;;;;;;;4.53;2.17;;;6.20;91.80;;;;;;2081653;28;20177;-63
2021/10/19 03:12:59;;;;;;;3.80;2.20;;;6.20;92.30;;;;;;2081560;28;20644;-64
2021/10/19 03:14:01;;;;;;;2.97;2.20;;;6.30;91.60;;;;;;2081757;28;20173;-64
2021/10/19 03:15:02;;;;;;;4.53;2.40;;;6.30;91.10;;;;;;2081605;28;20189;-64
2021/10/19 03:16:03;;;;;;;2.78;2.22;;;6.30;91.20;;;;;;2080922;28;20282;-63
2021/10/19 03:17:04;;;;;;;3.08;2.40;;;6.40;91.00;;;;;;2080996;28;20185;-64
2021/10/19 03:18:04;;;;;;;4.07;2.20;;;6.40;91.20;;;;;;2081731;28;20192;-64
2021/10/19 03:19:05;;;;;;;2.17;1.83;;;6.40;91.00;;;;;;2081684;28;20173;-64
2021/10/19 03:20:06;;;;;;;3.30;2.40;;;6.40;91.10;;;;;;2081083;28;20639;-65
2021/10/19 03:21:07;;;;;;;4.00;2.10;;;6.40;91.10;;;;;;2080795;28;20176;-64
2021/10/19 03:22:08;;;;;;;2.40;2.00;;;6.50;91.10;;;;;;2081637;28;20239;-64
2021/10/19 03:23:09;;;;;;;2.83;2.20;;;6.50;91.10;;;;;;2081147;28;20173;-64
2021/10/19 03:24:10;;;;;;;2.28;1.73;;;6.50;90.90;;;;;;2081655;28;20177;-64
2021/10/19 03:25:11;;;;;;;3.00;2.00;;;6.50;91.00;;;;;;2081645;28;20181;-64
2021/10/19 03:26:15;;;;;;;4.07;1.90;;;6.40;91.10;;;;;;2081629;28;20280;-64
2021/10/19 03:27:16;;;;;;;2.97;2.25;;;6.50;91.20;;;;;;2081559;28;20173;-64
2021/10/19 03:28:17;;;;;;;2.30;2.00;;;6.50;90.90;;;;;;2081881;28;20185;-64
2021/10/19 03:29:19;;;;;;;3.57;2.23;;;6.50;90.90;;;;;;2081642;28;20227;-64
2021/10/19 03:30:20;;;;;;;3.05;2.30;;;6.50;90.60;;;;;;2081621;28;20177;-65
2021/10/19 03:31:20;;;;;;;2.70;2.27;;;6.50;90.90;;;;;;2081373;28;20655;-64
2021/10/19 03:32:21;;;;;;;3.40;1.97;;;6.50;91.10;;;;;;2081545;28;20188;-65
2021/10/19 03:33:22;;;;;;;3.10;2.10;;;6.50;91.40;;;;;;2081583;28;20187;-64
2021/10/19 03:34:22;;;;;;;4.07;2.30;;;6.50;91.50;;;;;;2081560;28;20188;-65
2021/10/19 03:35:23;;;;;;;3.00;2.30;;;6.50;91.40;;;;;;2081512;28;20201;-64
2021/10/19 03:36:24;;;;;;;4.23;2.03;;;6.60;91.20;;;;;;2081527;28;20589;-65
2021/10/19 03:37:25;;;;;;;4.00;2.10;;;6.60;91.00;;;;;;2081429;28;20676;-65
2021/10/19 03:38:26;;;;;;;3.67;2.40;;;6.60;90.90;;;;;;2081466;28;20185;-64
2021/10/19 03:39:26;;;;;;;2.57;1.80;;;6.70;90.90;;;;;;2081540;28;20206;-65
2021/10/19 03:40:27;;;;;;;3.37;2.30;;;6.60;90.90;;;;;;2081117;28;20188;-65
2021/10/19 03:41:28;;;;;;;2.43;1.90;;;6.70;90.90;;;;;;2081314;28;20177;-64
2021/10/19 03:42:29;;;;;;;2.50;2.10;;;6.60;91.10;;;;;;2081525;28;20196;-65
2021/10/19 03:43:30;;;;;;;3.70;2.27;;;6.60;91.30;;;;;;2081493;28;20561;-64
2021/10/19 03:44:30;;;;;;;5.23;2.97;;;6.60;91.30;;;;;;2081402;28;20247;-64
2021/10/19 03:45:31;;;;;;;10.03;4.83;;;6.60;91.20;;;;;;2081381;28;20502;-65
2021/10/19 03:46:32;;;;;;;7.03;4.80;;;6.60;91.10;;;;;;2080788;28;20264;-64
2021/10/19 03:47:32;;;;;;;7.27;3.90;;;6.50;91.00;;;;;;2072639;28;20185;-64
2021/10/19 03:48:33;;;;;;;6.90;4.23;;;6.50;91.10;;;;;;2080729;28;20192;-65
2021/10/19 03:49:34;;;;;;;7.43;4.43;;;6.60;91.20;;;;;;2081576;28;20523;-65
2021/10/19 03:50:34;;;;;;;6.87;4.17;;;6.60;91.60;;;;;;2081316;28;20628;-64
2021/10/19 03:51:35;;;;;;;4.77;2.97;;;6.70;91.00;;;;;;2081301;28;20185;-65
2021/10/19 03:52:36;;;;;;;5.10;2.83;;;6.70;90.90;;;;;;2081422;28;20230;-65
2021/10/19 03:53:37;;;;;;;4.10;2.63;;;6.70;90.70;;;;;;2081395;28;20196;-65
2021/10/19 03:54:38;;;;;;;4.80;2.83;;;6.70;90.80;;;;;;2081462;28;20276;-64
2021/10/19 03:55:39;;;;;;;4.10;3.00;;;6.70;90.80;;;;;;2081410;28;20204;-65
2021/10/19 03:56:40;;;;;;;3.57;2.53;;;6.80;90.70;;;;;;2080782;28;20189;-64
2021/10/19 03:57:40;;;;;;;3.23;2.40;;;6.70;90.70;;;;;;2080713;28;20205;-64
2021/10/19 03:58:41;;;;;;;3.17;2.37;;;6.80;90.70;;;;;;2081396;28;20177;-64
2021/10/19 03:59:42;;;;;;;4.10;2.20;;;6.80;90.60;;;;;;2081340;28;20176;-65
2021/10/19 04:00:42;;;;;;;3.57;2.50;;;6.90;90.50;;;;;;2081331;28;20323;-64
2021/10/19 04:01:43;;;;;;;4.53;2.30;;;6.90;90.50;;;;;;2081240;28;20181;-65
2021/10/19 04:02:44;;;;;;;3.13;1.83;;;6.90;90.60;;;;;;2081294;28;20173;-65
2021/10/19 04:03:44;;;;;;;3.77;2.20;;;6.90;90.50;;;;;;2081420;28;20177;-64
2021/10/19 04:04:45;;;;;;;3.90;2.33;;;6.80;90.50;;;;;;2076764;28;20181;-64
2021/10/19 04:05:46;;;;;;;2.73;2.20;;;6.80;90.40;;;;;;2073180;28;20312;-65
2021/10/19 04:06:47;;;;;;;4.00;2.15;;;6.90;90.50;;;;;;2073101;28;20204;-64
2021/10/19 04:07:48;;;;;;;4.10;2.10;;;6.90;90.60;;;;;;2073203;28;20192;-65
2021/10/19 04:08:48;;;;;;;3.90;2.20;;;6.90;90.70;;;;;;2073045;28;20722;-63
2021/10/19 04:09:49;;;;;;;2.97;2.10;;;6.90;90.70;;;;;;2073039;28;20178;-65
2021/10/19 04:10:50;;;;;;;2.97;2.23;;;6.80;90.90;;;;;;2073128;28;20204;-65
2021/10/19 04:11:50;;;;;;;3.23;2.33;;;6.80;90.90;;;;;;2072903;28;20228;-63
2021/10/19 04:12:51;;;;;;;3.67;2.40;;;6.90;90.90;;;;;;2073169;28;20177;-65
2021/10/19 04:13:52;;;;;;;3.90;2.30;;;6.90;90.70;;;;;;2073138;28;20189;-65
2021/10/19 04:14:52;;;;;;;4.17;2.67;;;6.90;90.50;;;;;;2073051;28;20178;-64
2021/10/19 04:15:53;;;;;;;4.47;2.40;;;6.90;90.80;;;;;;2072976;28;20205;-64
2021/10/19 04:16:54;;;;;;;2.10;1.80;;;6.90;90.50;;;;;;2073127;28;20235;-65
2021/10/19 04:17:54;;;;;;;2.63;2.13;;;6.90;90.70;;;;;;2073001;28;20212;-64
2021/10/19 04:18:55;;;;;;;5.83;2.17;;;6.90;90.60;;;;;;2073209;28;20243;-64
2021/10/19 04:19:56;;;;;;;2.83;2.20;;;6.90;90.60;;;;;;2073096;28;20184;-64
2021/10/19 04:20:56;;;;;;;2.97;2.17;;;6.90;90.60;;;;;;2073112;28;20261;-64
2021/10/19 04:21:57;;;;;;;3.77;2.33;;;6.90;91.10;;;;;;2072945;28;20316;-65
2021/10/19 04:22:58;;;;;;;2.67;2.20;;;6.90;91.30;;;;;;2073030;28;20185;-64
2021/10/19 04:23:58;;;;;;;2.67;2.20;;;6.90;91.20;;;;;;2073146;28;20174;-65
2021/10/19 04:24:59;;;;;;;3.00;2.30;;;7.00;90.90;;;;;;2073160;28;20169;-65
2021/10/19 04:26:00;;;;;;;3.83;2.20;;;7.00;90.80;;;;;;2072923;28;20719;-64
2021/10/19 04:27:01;;;;;;;3.10;2.40;;;7.00;91.00;;;;;;2073193;28;20185;-64
2021/10/19 04:28:01;;;;;;;3.17;2.27;;;7.00;91.00;;;;;;2073085;28;20659;-65
2021/10/19 04:29:02;;;;;;;4.60;2.20;;;7.10;90.70;;;;;;2073165;28;20276;-65
2021/10/19 04:30:05;;;;;;;2.57;2.33;;;7.10;90.50;;;;;;2073070;28;20216;-63
2021/10/19 04:31:05;;;;;;;2.83;2.30;;;7.10;90.50;;;;;;2072160;28;20185;-65
2021/10/19 04:32:06;;;;;;;3.10;2.50;;;7.10;90.50;;;;;;2072431;28;20280;-65
2021/10/19 04:33:07;;;;;;;3.50;2.80;;;7.20;90.40;;;;;;2073111;28;20277;-65
2021/10/19 04:34:08;;;;;;;4.10;3.00;;;7.20;90.10;;;;;;2072667;28;20641;-65
2021/10/19 04:35:09;;;;;;;3.30;3.00;;;7.30;89.80;;;;;;2072587;28;20177;-64
2021/10/19 04:36:09;;;;;;;7.23;2.77;;;7.30;89.70;;;;;;2072973;28;20443;-65
2021/10/19 04:37:10;;;;;;;3.00;2.60;;;7.30;89.80;;;;;;2073025;28;20616;-65
2021/10/19 04:38:11;;;;;;;5.45;2.75;;;7.30;89.40;;;;;;2072406;28;20185;-64
2021/10/19 04:39:12;;;;;;;3.17;2.50;;;7.30;88.90;;;;;;2072386;28;20190;-65
2021/10/19 04:40:13;;;;;;;4.13;2.87;;;7.30;89.50;;;;;;2072914;28;20185;-64
2021/10/19 04:41:14;;;;;;;4.77;2.50;;;7.30;90.00;;;;;;2072370;28;20197;-65
2021/10/19 04:42:14;;;;;;;2.73;2.20;;;7.30;90.20;;;;;;2072472;28;20634;-65
2021/10/19 04:43:15;;;;;;;2.57;2.13;;;7.30;90.20;;;;;;2073000;28;20228;-64
2021/10/19 04:44:16;;;;;;;4.83;2.40;;;7.30;90.10;;;;;;2072956;28;20177;-64
2021/10/19 04:45:16;;;;;;;2.77;2.10;;;7.40;90.30;;;;;;2072960;28;20169;-64
2021/10/19 04:46:18;;;;;;;4.70;2.20;;;7.30;90.50;;;;;;2072976;28;20265;-64
2021/10/19 04:47:18;;;;;;;5.05;1.90;;;7.40;90.30;;;;;;2072932;28;20637;-64
2021/10/19 04:48:21;;;;;;;3.37;2.23;;;7.40;90.40;;;;;;2073150;28;20174;-64
2021/10/19 04:49:22;;;;;;;4.13;2.28;;;7.40;90.20;;;;;;2072991;28;20209;-65
2021/10/19 04:50:23;;;;;;;2.53;2.30;;;7.40;90.20;;;;;;2072884;28;20288;-65
2021/10/19 04:51:24;;;;;;;3.05;2.20;;;7.40;90.00;;;;;;2072103;28;20182;-64
2021/10/19 04:52:26;;;;;;;4.17;2.23;;;7.40;89.90;;;;;;2072237;28;20212;-64
2021/10/19 04:53:27;;;;;;;3.40;2.35;;;7.40;90.20;;;;;;2072339;28;20539;-64
2021/10/19 04:54:27;;;;;;;2.40;2.20;;;7.40;90.30;;;;;;2072303;28;20269;-64
2021/10/19 04:55:28;;;;;;;3.77;2.57;;;7.50;90.40;;;;;;2072868;28;20182;-65
2021/10/19 04:56:30;;;;;;;4.90;2.23;;;7.50;90.40;;;;;;2073011;28;20223;-64
2021/10/19 04:57:30;;;;;;;4.13;2.35;;;7.50;90.30;;;;;;2072348;28;20209;-65
2021/10/19 04:58:31;;;;;;;2.10;1.90;;;7.60;90.10;;;;;;2072381;28;20280;-64
2021/10/19 04:59:31;;;;;;;4.50;2.20;;;7.60;90.20;;;;;;2072982;28;20182;-64
2021/10/19 05:00:32;;;;;;;2.97;1.80;;;7.50;90.40;;;;;;2073072;28;20203;-64
2021/10/19 05:01:33;;;;;;;2.43;1.80;;;7.50;90.40;;;;;;2072945;28;20185;-64
2021/10/19 05:02:46;;;;;;;2.93;1.90;;;7.50;90.70;;;;;;2073078;28;20816;-64
2021/10/19 05:03:47;;;;;;;2.50;1.80;;;7.50;90.70;;;;;;2072320;28;20162;-64
2021/10/19 05:04:47;;;;;;;3.93;1.90;;;7.40;90.90;;;;;;2072467;28;20617;-63
2021/10/19 05:05:49;;;;;;;2.77;1.90;;;7.40;91.00;;;;;;2072862;28;20684;-64
2021/10/19 05:06:50;;;;;;;2.55;1.90;;;7.40;91.30;;;;;;2072969;28;20182;-65
2021/10/19 05:07:51;;;;;;;2.13;1.90;;;7.50;91.20;;;;;;2072894;28;20189;-64
2021/10/19 05:08:51;;;;;;;4.37;1.90;;;7.50;91.10;;;;;;2072922;28;20196;-64
2021/10/19 05:09:52;;;;;;;3.53;2.03;;;7.50;91.30;;;;;;2072918;28;20182;-64
2021/10/19 05:10:53;;;;;;;2.70;2.10;;;7.60;91.10;;;;;;2072946;28;20206;-64
2021/10/19 05:11:53;;;;;;;3.30;2.20;;;7.60;91.10;;;;;;2072708;28;20178;-65
2021/10/19 05:12:54;;;;;;;2.63;2.07;;;7.60;91.10;;;;;;2072926;28;20205;-64
2021/10/19 05:13:55;;;;;;;2.27;2.03;;;7.70;90.70;;;;;;2072887;28;20186;-65
2021/10/19 05:14:57;;;;;;;2.87;1.97;;;7.70;90.50;;;;;;2072949;28;20548;-64
2021/10/19 05:15:58;;;;;;;3.08;1.73;;;7.70;90.50;;;;;;2072752;28;20707;-63
2021/10/19 05:16:58;;;;;;;4.07;2.27;;;7.70;90.70;;;;;;2072953;28;20193;-64
2021/10/19 05:17:59;;;;;;;3.93;1.83;;;7.60;90.80;;;;;;2072911;28;20279;-64
2021/10/19 05:19:00;;;;;;;6.30;2.23;;;7.60;90.90;;;;;;2072915;28;20173;-64
2021/10/19 05:20:01;;;;;;;2.60;2.03;;;7.60;91.00;;;;;;2072835;28;20174;-65
2021/10/19 05:21:05;;;;;;;2.13;1.80;;;7.70;91.10;;;;;;2072780;28;20774;-64
2021/10/19 05:22:06;;;;;;;2.45;1.80;;;7.70;91.00;;;;;;2072986;28;20255;-63
2021/10/19 05:23:06;;;;;;;2.60;1.93;;;7.80;90.80;;;;;;2072924;28;20263;-64